Time;durP1;ratioP1;P1;durP2;ratioP2;P2;SDS_P1;SDS_P2;PMS_P1;PMS_P2;Temp;Humidity;BMP_temperature;BMP_pressure;BME280_temperature;BME280_humidity;BME280_pressure;Samples;Min_cycle;Max_cycle;Signal;HPM_P1;HPM_P2
2023/12/25 00:02:15;;;;;;;0.70;0.70;;;12.60;1.00;;;;;;5215799;28;20029;-30
2023/12/25 00:04:46;;;;;;;0.88;0.88;;;12.50;1.00;;;;;;5218245;28;20042;-31
2023/12/25 00:07:17;;;;;;;0.68;0.68;;;12.50;1.00;;;;;;5219289;28;20241;-30
2023/12/25 00:09:48;;;;;;;0.77;0.75;;;12.40;1.00;;;;;;5219746;28;20025;-30
2023/12/25 00:12:20;;;;;;;0.85;0.85;;;12.40;1.00;;;;;;5209413;28;20622;-31
2023/12/25 00:14:51;;;;;;;0.88;0.85;;;12.50;1.00;;;;;;5193390;28;20474;-33
2023/12/25 00:17:25;;;;;;;0.95;0.95;;;12.40;1.00;;;;;;5208768;28;20372;-30
2023/12/25 00:19:56;;;;;;;1.05;1.05;;;12.50;1.00;;;;;;5181601;28;20217;-30
2023/12/25 00:22:27;;;;;;;1.15;1.00;;;12.50;1.00;;;;;;5196978;28;20029;-30
2023/12/25 00:24:59;;;;;;;2.00;0.75;;;12.60;1.00;;;;;;5206796;28;20272;-31
2023/12/25 00:27:32;;;;;;;0.75;0.75;;;12.60;1.00;;;;;;5208054;28;20051;-31
2023/12/25 00:30:04;;;;;;;2.05;1.15;;;12.70;1.00;;;;;;5217218;28;20033;-30
2023/12/25 00:32:40;;;;;;;1.20;1.00;;;12.70;1.00;;;;;;5182398;28;20040;-30
2023/12/25 00:35:14;;;;;;;1.17;1.08;;;12.70;1.00;;;;;;5206957;28;20048;-30
2023/12/25 00:37:45;;;;;;;1.00;1.00;;;12.70;1.00;;;;;;5219278;28;20029;-30
2023/12/25 00:40:16;;;;;;;1.30;1.17;;;12.70;1.00;;;;;;5216771;28;20257;-31
2023/12/25 00:42:47;;;;;;;1.55;1.10;;;12.60;1.00;;;;;;5206982;28;20036;-31
2023/12/25 00:45:18;;;;;;;1.10;1.10;;;12.60;1.00;;;;;;5206852;28;20244;-31
2023/12/25 00:47:52;;;;;;;0.82;0.73;;;12.70;1.00;;;;;;5218731;28;20367;-32
2023/12/25 00:50:23;;;;;;;1.20;1.10;;;12.60;1.00;;;;;;5215327;28;20037;-31
2023/12/25 00:53:00;;;;;;;1.42;0.93;;;12.70;1.00;;;;;;5208626;28;20266;-31
2023/12/25 00:55:32;;;;;;;0.95;0.95;;;12.80;1.00;;;;;;5217263;28;20245;-31
2023/12/25 00:58:05;;;;;;;2.45;1.30;;;12.80;1.00;;;;;;5220782;28;20012;-32
2023/12/25 01:00:36;;;;;;;1.42;1.13;;;12.80;1.00;;;;;;5213192;28;20029;-32
2023/12/25 01:03:08;;;;;;;0.88;0.88;;;12.80;1.00;;;;;;5204967;28;20033;-30
2023/12/25 01:05:42;;;;;;;0.93;0.90;;;12.80;1.00;;;;;;5203864;28;20067;-32
2023/12/25 01:08:13;;;;;;;1.00;1.00;;;12.80;1.00;;;;;;5198591;28;20044;-32
2023/12/25 01:10:46;;;;;;;0.98;0.98;;;12.90;1.00;;;;;;5215066;28;20047;-32
2023/12/25 01:13:20;;;;;;;1.00;1.00;;;13.00;1.00;;;;;;5166934;28;20037;-35
2023/12/25 01:15:53;;;;;;;0.98;0.98;;;13.10;1.00;;;;;;5210971;28;20272;-33
2023/12/25 01:18:27;;;;;;;0.82;0.80;;;13.30;1.00;;;;;;5214391;28;20159;-32
2023/12/25 01:21:01;;;;;;;0.90;0.90;;;13.20;1.00;;;;;;5178265;28;20024;-32
2023/12/25 01:23:32;;;;;;;2.42;0.95;;;13.20;1.00;;;;;;5214060;28;20066;-32
2023/12/25 01:26:06;;;;;;;1.05;1.05;;;13.20;1.00;;;;;;5207054;28;20171;-32
2023/12/25 01:28:37;;;;;;;1.20;0.88;;;13.10;1.00;;;;;;5192015;28;20040;-32
2023/12/25 01:31:15;;;;;;;1.05;1.00;;;13.10;1.00;;;;;;5210780;28;20206;-31
2023/12/25 01:33:46;;;;;;;0.90;0.90;;;13.20;1.00;;;;;;5215409;28;20032;-31
2023/12/25 01:36:17;;;;;;;1.80;1.15;;;13.20;1.00;;;;;;5206867;28;20032;-31
2023/12/25 01:38:49;;;;;;;1.13;1.13;;;13.30;1.00;;;;;;5217961;28;20037;-32
2023/12/25 01:41:22;;;;;;;1.38;0.60;;;13.40;1.00;;;;;;5200076;28;20491;-32
2023/12/25 01:43:55;;;;;;;1.25;1.20;;;13.40;1.00;;;;;;5218052;28;20214;-32
2023/12/25 01:46:27;;;;;;;1.10;1.10;;;13.40;1.00;;;;;;5215376;28;20044;-32
2023/12/25 01:48:59;;;;;;;0.90;0.90;;;13.30;1.00;;;;;;5218634;28;20035;-32
2023/12/25 01:51:32;;;;;;;0.80;0.80;;;13.30;1.00;;;;;;5198977;28;20028;-31
2023/12/25 01:54:07;;;;;;;2.28;1.20;;;13.40;1.00;;;;;;5178838;28;20340;-32
2023/12/25 01:56:39;;;;;;;0.88;0.70;;;13.50;1.00;;;;;;5214772;28;20569;-30
2023/12/25 01:59:12;;;;;;;1.10;1.00;;;13.50;1.00;;;;;;5217748;28;20025;-31
2023/12/25 02:01:46;;;;;;;0.80;0.80;;;13.50;1.00;;;;;;5214082;28;20029;-33
2023/12/25 02:04:18;;;;;;;0.93;0.93;;;13.50;1.00;;;;;;5218226;28;20039;-31
2023/12/25 02:06:54;;;;;;;3.28;0.80;;;13.60;1.00;;;;;;5196600;28;20037;-31
2023/12/25 02:09:25;;;;;;;0.80;0.80;;;13.60;99.90;;;;;;5188554;28;20040;-31
2023/12/25 02:11:58;;;;;;;1.05;1.00;;;13.70;99.90;;;;;;5187331;28;20337;-37
2023/12/25 02:14:38;;;;;;;0.75;0.75;;;13.70;99.90;;;;;;5200553;28;20037;-31
2023/12/25 02:17:11;;;;;;;0.93;0.90;;;13.80;99.90;;;;;;5204828;28;20222;-32
2023/12/25 02:19:45;;;;;;;1.83;1.20;;;13.90;99.90;;;;;;5213794;28;20329;-32
2023/12/25 02:22:22;;;;;;;2.25;1.15;;;13.90;99.90;;;;;;5218140;28;20047;-31
2023/12/25 02:25:02;;;;;;;0.85;0.85;;;13.90;99.90;;;;;;5199258;28;20282;-32
2023/12/25 02:27:34;;;;;;;0.70;0.70;;;14.00;99.90;;;;;;5212411;28;20402;-32
2023/12/25 02:30:06;;;;;;;0.73;0.73;;;13.90;99.90;;;;;;5194058;28;20033;-32
2023/12/25 02:32:41;;;;;;;0.75;0.75;;;14.00;99.90;;;;;;5217813;28;20058;-32
2023/12/25 02:35:12;;;;;;;0.90;0.90;;;13.90;99.90;;;;;;5182426;28;20029;-32
2023/12/25 02:37:45;;;;;;;1.00;1.00;;;13.90;99.90;;;;;;5211319;28;20040;-32
2023/12/25 02:40:17;;;;;;;1.05;0.80;;;13.90;99.90;;;;;;5190560;28;20243;-31
2023/12/25 02:42:51;;;;;;;1.10;0.70;;;14.00;99.90;;;;;;5198590;28;20065;-32
2023/12/25 02:45:28;;;;;;;0.80;0.80;;;14.20;99.90;;;;;;5214232;28;20555;-36
2023/12/25 02:48:02;;;;;;;1.13;1.00;;;14.20;99.90;;;;;;5208618;28;20370;-32
2023/12/25 02:50:36;;;;;;;0.70;0.70;;;14.20;42.80;;;;;;5189874;28;20029;-32
2023/12/25 02:53:10;;;;;;;1.05;1.00;;;14.30;1.00;;;;;;5196703;28;20029;-32
2023/12/25 02:55:45;;;;;;;1.35;1.25;;;14.30;1.00;;;;;;5199603;28;20352;-32
2023/12/25 02:58:19;;;;;;;1.27;0.88;;;14.20;1.00;;;;;;5202152;28;20033;-32
2023/12/25 03:00:51;;;;;;;1.02;1.02;;;14.20;1.00;;;;;;5204544;28;20036;-32
2023/12/25 03:03:24;;;;;;;0.95;0.90;;;14.10;1.00;;;;;;5217546;28;20032;-31
2023/12/25 03:05:58;;;;;;;1.03;1.03;;;14.10;1.00;;;;;;5216828;28;20051;-31
2023/12/25 03:08:32;;;;;;;0.82;0.82;;;14.10;1.00;;;;;;5180024;28;20481;-32
2023/12/25 03:11:03;;;;;;;2.97;1.10;;;14.10;1.00;;;;;;5215720;28;20136;-33
2023/12/25 03:13:39;;;;;;;2.70;1.00;;;14.10;1.00;;;;;;5198257;28;20120;-31
2023/12/25 03:16:10;;;;;;;1.05;1.00;;;14.10;1.00;;;;;;5194588;28;20037;-31
2023/12/25 03:18:44;;;;;;;0.80;0.80;;;14.10;1.00;;;;;;5206281;28;20032;-30
2023/12/25 03:21:16;;;;;;;;;;;14.10;1.00;;;;;;5192587;28;20035;-33
2023/12/25 03:23:49;;;;;;;1.33;1.00;;;14.10;1.00;;;;;;5197727;28;20142;-32
2023/12/25 03:26:23;;;;;;;2.15;0.80;;;14.10;1.00;;;;;;5215554;28;20249;-32
2023/12/25 03:28:56;;;;;;;1.00;1.00;;;14.10;1.00;;;;;;5182528;28;20041;-31
2023/12/25 03:31:29;;;;;;;1.05;1.05;;;14.10;1.00;;;;;;5189350;28;20361;-32
2023/12/25 03:34:02;;;;;;;0.80;0.80;;;14.10;1.00;;;;;;5185250;28;20342;-31
2023/12/25 03:36:36;;;;;;;1.00;1.00;;;14.10;1.00;;;;;;5216948;28;20040;-32
2023/12/25 03:39:07;;;;;;;1.23;0.90;;;14.20;1.00;;;;;;5180601;28;20033;-32
2023/12/25 03:41:41;;;;;;;1.88;0.82;;;14.20;1.00;;;;;;5175034;28;20467;-31
2023/12/25 03:44:15;;;;;;;1.20;1.10;;;14.20;1.00;;;;;;5204995;28;20048;-37
2023/12/25 03:46:48;;;;;;;1.10;1.05;;;14.30;1.00;;;;;;5198170;28;20265;-33
2023/12/25 03:49:22;;;;;;;0.80;0.80;;;14.30;1.00;;;;;;5196552;28;20037;-32
2023/12/25 03:51:53;;;;;;;1.25;0.90;;;14.30;1.00;;;;;;5223811;28;20040;-32
2023/12/25 03:54:25;;;;;;;1.20;1.05;;;14.30;1.00;;;;;;5216824;28;20040;-30
2023/12/25 03:56:59;;;;;;;0.80;0.80;;;14.20;1.00;;;;;;5196168;28;20233;-31
2023/12/25 03:59:33;;;;;;;0.80;0.80;;;14.10;1.00;;;;;;5218431;28;20234;-30
2023/12/25 04:02:06;;;;;;;0.93;0.90;;;14.20;1.00;;;;;;5217695;28;20036;-31
2023/12/25 04:04:43;;;;;;;1.38;1.35;;;14.20;1.00;;;;;;5205717;28;20602;-31
2023/12/25 04:07:16;;;;;;;0.80;0.80;;;14.20;1.00;;;;;;5222035;28;20155;-31
2023/12/25 04:09:50;;;;;;;1.30;1.20;;;14.30;1.00;;;;;;5221028;28;20251;-31
2023/12/25 04:12:25;;;;;;;1.42;0.80;;;14.30;1.00;;;;;;5221431;28;20032;-30
2023/12/25 04:14:56;;;;;;;1.20;1.10;;;14.20;1.00;;;;;;5187446;28;20037;-30
2023/12/25 04:17:29;;;;;;;1.75;1.33;;;14.30;1.00;;;;;;5184749;28;20044;-31
2023/12/25 04:20:01;;;;;;;1.10;1.10;;;14.20;1.00;;;;;;5209776;28;20033;-31
2023/12/25 04:22:37;;;;;;;0.90;0.90;;;14.20;1.00;;;;;;5182260;28;20053;-33
2023/12/25 04:25:10;;;;;;;0.82;0.60;;;14.20;1.00;;;;;;5205232;28;20221;-31
2023/12/25 04:27:41;;;;;;;0.90;0.90;;;14.20;1.00;;;;;;5218705;28;20029;-31
2023/12/25 04:30:13;;;;;;;0.60;0.60;;;14.20;1.00;;;;;;5180670;28;20051;-31
2023/12/25 04:32:47;;;;;;;0.80;0.80;;;14.10;1.00;;;;;;5199553;28;20362;-31
2023/12/25 04:35:26;;;;;;;1.27;1.17;;;14.20;1.00;;;;;;5221704;28;20052;-32
2023/12/25 04:37:57;;;;;;;1.08;1.00;;;14.20;1.00;;;;;;5217671;28;20029;-31
2023/12/25 04:40:31;;;;;;;0.80;0.80;;;14.20;1.00;;;;;;5198397;28;20319;-32
2023/12/25 04:43:05;;;;;;;0.90;0.90;;;14.20;1.00;;;;;;5186372;28;20049;-33
2023/12/25 04:45:36;;;;;;;;;;;14.10;1.00;;;;;;5178800;28;20229;-30
2023/12/25 04:48:07;;;;;;;0.82;0.82;;;14.10;1.00;;;;;;5199875;28;20093;-30
2023/12/25 04:50:42;;;;;;;0.70;0.70;;;14.10;1.00;;;;;;5201083;28;20234;-30
2023/12/25 04:53:17;;;;;;;0.65;0.65;;;14.20;1.00;;;;;;5219705;28;20043;-30
2023/12/25 04:55:49;;;;;;;0.93;0.93;;;14.20;1.00;;;;;;5205682;28;20286;-30
2023/12/25 04:58:20;;;;;;;0.90;0.90;;;14.20;1.00;;;;;;5212984;28;20047;-30
2023/12/25 05:00:51;;;;;;;0.70;0.70;;;14.10;1.00;;;;;;5176272;28;20063;-31
2023/12/25 05:03:23;;;;;;;1.02;0.90;;;14.20;1.00;;;;;;5199296;28;20029;-31
2023/12/25 05:05:57;;;;;;;0.73;0.73;;;14.20;1.00;;;;;;5200943;28;20029;-31
2023/12/25 05:08:28;;;;;;;;;;;14.10;1.00;;;;;;5200517;28;20029;-30
2023/12/25 05:11:00;;;;;;;0.82;0.80;;;14.10;1.00;;;;;;5195445;28;19913;-31
2023/12/25 05:13:31;;;;;;;2.20;0.70;;;14.10;1.00;;;;;;5194025;28;20037;-31
2023/12/25 05:16:03;;;;;;;0.60;0.60;;;14.00;1.00;;;;;;5193105;28;20323;-30
2023/12/25 05:18:41;;;;;;;1.73;0.80;;;14.00;1.00;;;;;;5199175;28;20230;-30
2023/12/25 05:21:15;;;;;;;0.85;0.85;;;14.00;1.00;;;;;;5202006;28;20206;-30
2023/12/25 05:23:49;;;;;;;1.05;0.98;;;13.90;1.00;;;;;;5185722;28;20045;-30
2023/12/25 05:26:25;;;;;;;0.90;0.90;;;13.90;1.00;;;;;;5201217;28;20210;-31
2023/12/25 05:28:56;;;;;;;0.77;0.77;;;13.90;1.00;;;;;;5211982;28;20264;-31
2023/12/25 05:31:27;;;;;;;0.75;0.75;;;13.80;1.00;;;;;;5208157;28;20040;-33
2023/12/25 05:33:59;;;;;;;0.93;0.90;;;13.90;1.00;;;;;;5218230;28;20041;-31
2023/12/25 05:36:30;;;;;;;0.70;0.70;;;13.80;1.00;;;;;;5219025;28;20296;-31
2023/12/25 05:39:04;;;;;;;2.20;0.80;;;13.90;1.00;;;;;;5222284;28;20039;-31
2023/12/25 05:41:35;;;;;;;1.10;1.10;;;13.90;1.00;;;;;;5237551;28;20366;-35
2023/12/25 05:44:08;;;;;;;0.70;0.70;;;13.90;1.00;;;;;;5240138;28;20040;-31
2023/12/25 05:46:40;;;;;;;1.52;0.95;;;13.90;1.00;;;;;;5217219;28;20031;-31
2023/12/25 05:49:11;;;;;;;0.70;0.70;;;13.90;1.00;;;;;;5144380;28;20041;-31
2023/12/25 05:51:45;;;;;;;0.90;0.90;;;13.80;1.00;;;;;;5194980;28;20060;-31
2023/12/25 05:54:16;;;;;;;;;;;13.80;1.00;;;;;;5218742;28;20039;-32
2023/12/25 05:56:50;;;;;;;0.80;0.80;;;13.80;1.00;;;;;;5219041;28;20205;-32
2023/12/25 05:59:25;;;;;;;0.90;0.90;;;13.70;1.00;;;;;;5220619;28;20025;-31
2023/12/25 06:01:57;;;;;;;0.77;0.77;;;13.60;1.00;;;;;;5214734;28;20286;-31
2023/12/25 06:04:31;;;;;;;0.70;0.70;;;13.50;1.00;;;;;;5184366;28;20099;-31
2023/12/25 06:07:04;;;;;;;2.42;1.17;;;13.50;1.00;;;;;;5218477;28;20028;-34
2023/12/25 06:09:35;;;;;;;0.80;0.80;;;13.50;1.00;;;;;;5179943;28;20350;-31
2023/12/25 06:12:09;;;;;;;0.90;0.90;;;13.40;1.00;;;;;;5184111;28;20253;-31
2023/12/25 06:14:45;;;;;;;0.90;0.60;;;13.40;1.00;;;;;;5200823;28;20071;-31
2023/12/25 06:17:21;;;;;;;1.02;0.80;;;13.40;1.00;;;;;;5214931;28;20337;-31
2023/12/25 06:19:52;;;;;;;1.17;0.80;;;13.30;1.00;;;;;;5201383;28;20032;-31
2023/12/25 06:22:23;;;;;;;0.70;0.70;;;13.30;1.00;;;;;;5218217;28;20290;-31
2023/12/25 06:24:55;;;;;;;2.05;0.95;;;13.20;1.00;;;;;;5199264;28;20026;-31
2023/12/25 06:27:29;;;;;;;0.90;0.90;;;13.20;1.00;;;;;;5171280;28;20388;-31
2023/12/25 06:30:04;;;;;;;1.05;1.00;;;13.20;1.00;;;;;;5209806;28;20213;-33
2023/12/25 06:32:35;;;;;;;2.92;1.00;;;13.20;1.00;;;;;;5198068;28;20371;-32
2023/12/25 06:35:09;;;;;;;0.70;0.70;;;13.20;1.00;;;;;;5218427;28;20352;-32
2023/12/25 06:37:40;;;;;;;1.00;1.00;;;13.10;1.00;;;;;;5218087;28;20213;-32
2023/12/25 06:40:15;;;;;;;0.70;0.70;;;13.00;1.00;;;;;;5219009;28;20043;-35
2023/12/25 06:42:46;;;;;;;;;;;13.00;1.00;;;;;;5198601;28;20644;-31
2023/12/25 06:45:17;;;;;;;0.82;0.82;;;12.90;1.00;;;;;;5210397;28;19924;-31
2023/12/25 06:47:52;;;;;;;1.00;1.00;;;12.90;1.00;;;;;;5200783;28;20021;-31
2023/12/25 06:50:23;;;;;;;0.93;0.93;;;13.00;1.00;;;;;;5218503;28;20035;-31
2023/12/25 06:53:00;;;;;;;0.98;0.98;;;13.10;1.00;;;;;;5217015;28;20020;-32
2023/12/25 06:55:36;;;;;;;2.17;0.98;;;13.10;1.00;;;;;;5215232;28;20029;-31
2023/12/25 06:58:08;;;;;;;0.65;0.65;;;13.10;1.00;;;;;;5211439;28;20217;-31
2023/12/25 07:00:43;;;;;;;1.02;0.85;;;13.10;1.00;;;;;;5183915;28;20028;-31
2023/12/25 07:03:19;;;;;;;0.93;0.80;;;13.10;1.00;;;;;;5218566;28;20025;-32
2023/12/25 07:05:51;;;;;;;0.93;0.93;;;13.10;1.00;;;;;;5180453;28;20030;-31
2023/12/25 07:08:27;;;;;;;0.70;0.70;;;13.00;1.00;;;;;;5216132;28;20021;-31
2023/12/25 07:11:01;;;;;;;0.80;0.80;;;13.10;1.00;;;;;;5217626;28;20033;-31
2023/12/25 07:13:36;;;;;;;0.82;0.80;;;13.00;1.00;;;;;;5218077;28;20033;-32
2023/12/25 07:16:08;;;;;;;0.82;0.82;;;13.00;1.00;;;;;;5210550;28;20060;-31
2023/12/25 07:18:39;;;;;;;0.63;0.63;;;13.00;1.00;;;;;;5191009;28;20036;-31
2023/12/25 07:21:13;;;;;;;1.02;0.93;;;13.00;1.00;;;;;;5185522;28;20040;-31
2023/12/25 07:23:49;;;;;;;1.02;1.02;;;13.10;1.00;;;;;;5196608;28;20167;-30
2023/12/25 07:26:20;;;;;;;0.90;0.90;;;13.20;1.00;;;;;;5181134;28;20033;-31
2023/12/25 07:28:54;;;;;;;0.90;0.90;;;13.30;1.00;;;;;;5220680;28;20287;-31
2023/12/25 07:31:27;;;;;;;1.10;1.00;;;13.40;1.00;;;;;;5206868;28;20275;-32
2023/12/25 07:34:01;;;;;;;1.00;1.00;;;13.50;1.00;;;;;;5217768;28;20029;-32
2023/12/25 07:36:32;;;;;;;1.20;1.10;;;13.60;1.00;;;;;;5204972;28;21089;-32
2023/12/25 07:39:05;;;;;;;0.80;0.80;;;13.60;1.00;;;;;;5195779;28;20458;-36
2023/12/25 07:41:36;;;;;;;1.02;1.02;;;13.70;1.00;;;;;;5204835;28;20058;-32
2023/12/25 07:44:10;;;;;;;0.82;0.82;;;13.70;1.00;;;;;;5210499;28;20228;-32
2023/12/25 07:46:42;;;;;;;2.40;1.47;;;13.70;1.00;;;;;;5207935;28;20062;-32
2023/12/25 07:49:17;;;;;;;0.80;0.80;;;13.80;1.00;;;;;;5208852;28;20039;-32
2023/12/25 07:51:48;;;;;;;0.63;0.63;;;13.80;99.90;;;;;;5201479;28;20053;-32
2023/12/25 07:54:19;;;;;;;0.90;0.90;;;13.90;1.00;;;;;;5205402;28;20333;-32
2023/12/25 07:56:50;;;;;;;0.90;0.90;;;14.00;1.00;;;;;;5193431;28;20225;-32
2023/12/25 07:59:24;;;;;;;1.00;1.00;;;14.10;1.00;;;;;;5214269;28;20209;-31
2023/12/25 08:02:00;;;;;;;0.90;0.90;;;14.20;1.00;;;;;;5186792;28;20032;-32
2023/12/25 08:04:31;;;;;;;0.80;0.80;;;14.30;99.90;;;;;;5209605;28;20033;-33
2023/12/25 08:07:05;;;;;;;0.73;0.73;;;14.30;99.90;;;;;;5220245;28;20045;-31
2023/12/25 08:09:42;;;;;;;0.75;0.75;;;14.30;99.90;;;;;;5219291;28;20052;-33
2023/12/25 08:12:14;;;;;;;0.70;0.70;;;14.30;99.90;;;;;;5218732;28;20339;-31
2023/12/25 08:14:48;;;;;;;1.67;1.00;;;14.30;99.90;;;;;;5195313;28;20033;-31
2023/12/25 08:17:20;;;;;;;0.75;0.75;;;14.30;99.90;;;;;;5207771;28;20037;-31
2023/12/25 08:19:54;;;;;;;1.17;0.85;;;14.30;99.90;;;;;;5213199;28;20347;-31
2023/12/25 08:22:25;;;;;;;1.33;1.23;;;14.20;99.90;;;;;;5192616;28;20025;-32
2023/12/25 08:24:57;;;;;;;1.40;1.10;;;14.30;99.90;;;;;;5202135;28;20035;-32
2023/12/25 08:27:28;;;;;;;0.85;0.85;;;14.30;99.90;;;;;;5216657;28;20071;-32
2023/12/25 08:30:03;;;;;;;0.82;0.82;;;14.30;99.90;;;;;;5185916;28;20039;-32
2023/12/25 08:32:36;;;;;;;;;;;14.30;99.90;;;;;;5206425;28;20245;-32
2023/12/25 08:35:12;;;;;;;2.22;0.88;;;14.30;99.90;;;;;;5192087;28;20094;-32
2023/12/25 08:37:44;;;;;;;1.08;1.00;;;14.30;1.00;;;;;;5195317;28;20033;-37
2023/12/25 08:40:18;;;;;;;0.80;0.80;;;14.40;1.00;;;;;;5175978;28;20029;-31
2023/12/25 08:42:49;;;;;;;1.15;1.05;;;14.40;99.90;;;;;;5187805;28;20332;-31
2023/12/25 08:45:20;;;;;;;0.80;0.80;;;14.40;99.90;;;;;;5224033;28;20045;-32
2023/12/25 08:47:55;;;;;;;1.00;1.00;;;14.40;99.90;;;;;;5218893;28;20047;-32
2023/12/25 08:50:26;;;;;;;0.88;0.88;;;14.40;99.90;;;;;;5208515;28;20033;-31
2023/12/25 08:52:57;;;;;;;1.67;0.73;;;14.50;1.00;;;;;;5219223;28;20039;-31
2023/12/25 08:55:28;;;;;;;1.00;1.00;;;14.60;1.00;;;;;;5217742;28;20045;-30
2023/12/25 08:57:59;;;;;;;1.13;1.02;;;14.60;1.00;;;;;;5214368;28;20029;-31
2023/12/25 09:00:31;;;;;;;0.90;0.90;;;14.60;1.00;;;;;;5193020;28;20044;-33
2023/12/25 09:03:02;;;;;;;1.85;1.10;;;14.70;1.00;;;;;;5196444;28;20291;-31
2023/12/25 09:05:36;;;;;;;0.90;0.90;;;14.70;1.00;;;;;;5213741;28;20032;-31
2023/12/25 09:08:11;;;;;;;0.90;0.90;;;14.80;1.00;;;;;;5218526;28;20033;-32
2023/12/25 09:10:45;;;;;;;1.00;1.00;;;14.80;1.00;;;;;;5219969;28;20321;-31
2023/12/25 09:13:18;;;;;;;0.95;0.95;;;14.80;99.90;;;;;;5206028;28;20047;-31
2023/12/25 09:15:50;;;;;;;1.20;1.10;;;14.80;99.90;;;;;;5204837;28;20041;-31
2023/12/25 09:18:23;;;;;;;0.95;0.95;;;14.80;99.90;;;;;;5215527;28;20302;-32
2023/12/25 09:20:57;;;;;;;1.00;1.00;;;14.80;99.90;;;;;;5197966;28;20402;-31
2023/12/25 09:23:38;;;;;;;2.05;1.38;;;14.70;99.90;;;;;;5218084;28;20032;-31
2023/12/25 09:26:18;;;;;;;1.30;1.20;;;14.70;99.90;;;;;;5218919;28;20029;-31
2023/12/25 09:28:52;;;;;;;0.68;0.68;;;14.70;99.90;;;;;;5218623;28;20028;-31
2023/12/25 09:31:25;;;;;;;0.90;0.90;;;14.70;99.90;;;;;;5216547;28;20263;-31
2023/12/25 09:33:57;;;;;;;1.63;1.10;;;14.70;99.90;;;;;;5219248;28;20191;-31
2023/12/25 09:36:29;;;;;;;1.30;1.20;;;14.70;99.90;;;;;;5218752;28;20199;-36
2023/12/25 09:39:03;;;;;;;1.33;1.20;;;14.70;99.90;;;;;;5197119;28;20032;-32
2023/12/25 09:41:35;;;;;;;1.45;1.10;;;14.70;99.90;;;;;;5197203;28;20442;-31
2023/12/25 09:44:07;;;;;;;1.02;0.93;;;14.80;99.90;;;;;;5197379;28;20037;-31
2023/12/25 09:46:41;;;;;;;1.05;0.90;;;14.80;99.90;;;;;;5194843;28;20302;-31
2023/12/25 09:49:17;;;;;;;1.00;1.00;;;14.70;99.90;;;;;;5218645;28;20281;-30
2023/12/25 09:51:53;;;;;;;0.93;0.93;;;14.80;99.90;;;;;;5218171;28;20322;-32
2023/12/25 09:54:27;;;;;;;1.13;1.00;;;14.70;99.90;;;;;;5216958;28;20420;-31
2023/12/25 09:57:01;;;;;;;1.10;1.10;;;14.70;99.90;;;;;;5213655;28;20044;-31
2023/12/25 09:59:35;;;;;;;;;;;14.80;99.90;;;;;;5196832;28;20036;-32
2023/12/25 10:02:07;;;;;;;1.00;1.00;;;14.80;99.90;;;;;;5193213;28;19920;-33
2023/12/25 10:04:44;;;;;;;0.80;0.80;;;14.80;99.90;;;;;;5203388;28;20257;-31
2023/12/25 10:07:23;;;;;;;2.55;1.42;;;14.80;99.90;;;;;;5218237;28;20107;-31
2023/12/25 10:09:57;;;;;;;0.93;0.90;;;14.90;99.90;;;;;;5218479;28;20058;-36
2023/12/25 10:12:31;;;;;;;3.50;1.40;;;15.00;99.90;;;;;;5216092;28;20033;-31
2023/12/25 10:15:05;;;;;;;1.10;0.98;;;15.10;99.90;;;;;;5217933;28;20035;-32
2023/12/25 10:17:38;;;;;;;1.48;1.27;;;15.00;99.90;;;;;;5195136;28;20025;-31
2023/12/25 10:20:18;;;;;;;3.45;1.30;;;14.90;99.90;;;;;;5178216;28;20041;-31
2023/12/25 10:22:49;;;;;;;0.90;0.90;;;14.90;99.90;;;;;;5198327;28;20323;-31
2023/12/25 10:25:26;;;;;;;1.70;1.38;;;14.90;99.90;;;;;;5196794;28;20029;-31
2023/12/25 10:28:14;;;;;;;0.98;0.98;;;15.00;99.90;;;;;;5201556;28;20040;-32
2023/12/25 10:31:10;;;;;;;1.17;1.17;;;15.00;99.90;;;;;;5214450;28;20038;-31
2023/12/25 10:34:00;;;;;;;1.45;1.20;;;15.20;99.90;;;;;;5205136;28;20033;-31
2023/12/25 10:36:36;;;;;;;1.23;1.13;;;15.50;1.00;;;;;;5205648;28;20514;-31
2023/12/25 10:39:11;;;;;;;0.90;0.90;;;15.40;99.90;;;;;;5180317;28;20037;-31
2023/12/25 10:41:47;;;;;;;1.00;1.00;;;15.30;99.90;;;;;;5201550;28;20029;-31
2023/12/25 10:44:19;;;;;;;1.13;1.00;;;15.20;99.90;;;;;;5190877;28;20439;-31
2023/12/25 10:46:58;;;;;;;0.93;0.93;;;15.10;99.90;;;;;;5185945;28;20083;-31
2023/12/25 10:49:30;;;;;;;1.30;1.20;;;15.10;99.90;;;;;;5215136;28;20371;-31
2023/12/25 10:52:04;;;;;;;1.05;1.00;;;15.30;99.90;;;;;;5222613;28;20048;-33
2023/12/25 10:54:42;;;;;;;2.67;0.93;;;15.60;99.90;;;;;;5216488;28;20103;-31
2023/12/25 10:57:14;;;;;;;1.10;1.00;;;16.00;1.00;;;;;;5202321;28;20029;-32
2023/12/25 10:59:46;;;;;;;1.10;1.10;;;15.80;99.90;;;;;;5216220;28;20012;-32
2023/12/25 11:02:20;;;;;;;1.05;1.05;;;15.60;99.90;;;;;;5215654;28;20047;-32
2023/12/25 11:04:54;;;;;;;1.20;1.10;;;15.60;99.90;;;;;;5221963;28;20230;-32
2023/12/25 11:07:25;;;;;;;1.52;1.42;;;15.60;99.90;;;;;;5222372;28;20029;-33
2023/12/25 11:10:01;;;;;;;1.75;1.42;;;15.50;99.90;;;;;;5220223;28;20028;-31
2023/12/25 11:12:33;;;;;;;2.03;1.50;;;15.70;99.90;;;;;;5217989;28;20032;-31
2023/12/25 11:15:11;;;;;;;1.63;1.20;;;16.10;99.90;;;;;;5218531;28;20028;-31
2023/12/25 11:17:44;;;;;;;1.02;1.02;;;16.00;99.90;;;;;;5221053;28;20036;-32
2023/12/25 11:20:16;;;;;;;;;;;15.70;99.90;;;;;;5221517;28;20075;-32
2023/12/25 11:22:51;;;;;;;1.00;0.80;;;15.50;99.90;;;;;;5221010;28;19908;-32
2023/12/25 11:25:32;;;;;;;1.20;1.08;;;15.60;99.90;;;;;;5221300;28;20221;-37
2023/12/25 11:28:04;;;;;;;1.23;1.13;;;15.70;99.90;;;;;;5216720;28;20039;-33
2023/12/25 11:30:36;;;;;;;1.20;1.10;;;15.80;99.90;;;;;;5215026;28;20161;-33
2023/12/25 11:33:12;;;;;;;1.20;1.10;;;15.80;99.90;;;;;;5212361;28;20024;-32
2023/12/25 11:35:43;;;;;;;1.08;1.08;;;15.70;99.90;;;;;;5221283;28;20040;-33
2023/12/25 11:38:20;;;;;;;1.23;1.13;;;15.50;99.90;;;;;;5220879;28;20033;-30
2023/12/25 11:40:59;;;;;;;0.90;0.90;;;15.50;99.90;;;;;;5225079;28;20369;-30
2023/12/25 11:43:31;;;;;;;1.05;1.00;;;15.50;99.90;;;;;;5223259;28;20392;-32
2023/12/25 11:46:03;;;;;;;1.65;1.20;;;15.70;99.90;;;;;;5210659;28;20029;-32
2023/12/25 11:48:36;;;;;;;2.88;1.10;;;15.80;99.90;;;;;;5211193;28;20026;-31
2023/12/25 11:51:23;;;;;;;1.40;1.30;;;15.50;99.90;;;;;;5194340;28;20036;-32
2023/12/25 11:53:59;;;;;;;2.08;1.38;;;15.40;99.90;;;;;;5215164;28;20245;-32
2023/12/25 11:56:33;;;;;;;1.60;1.30;;;15.50;99.90;;;;;;5232626;28;20031;-31
2023/12/25 11:59:05;;;;;;;1.50;1.33;;;15.50;99.90;;;;;;5232419;28;20347;-36
2023/12/25 12:01:42;;;;;;;1.10;1.10;;;15.40;99.90;;;;;;5231454;28;20029;-31
2023/12/25 12:04:17;;;;;;;1.27;1.17;;;15.10;99.90;;;;;;5235590;28;20195;-31
2023/12/25 12:06:51;;;;;;;1.40;1.10;;;14.90;99.90;;;;;;5235213;28;20033;-31
2023/12/25 12:09:22;;;;;;;1.33;1.05;;;15.00;99.90;;;;;;5217908;28;20047;-31
2023/12/25 12:11:53;;;;;;;1.20;1.00;;;15.00;99.90;;;;;;5199200;28;20356;-31
2023/12/25 12:14:26;;;;;;;1.15;1.05;;;15.00;99.90;;;;;;5199941;28;20049;-31
2023/12/25 12:16:57;;;;;;;1.15;1.05;;;15.00;99.90;;;;;;5195921;28;20044;-31
2023/12/25 12:19:29;;;;;;;1.20;1.20;;;14.90;99.90;;;;;;5199152;28;20041;-32
2023/12/25 12:22:08;;;;;;;1.08;1.00;;;14.90;99.90;;;;;;5211948;28;20029;-32
2023/12/25 12:24:45;;;;;;;3.60;1.00;;;15.10;99.90;;;;;;5216362;28;20021;-31
2023/12/25 12:27:25;;;;;;;1.25;1.10;;;15.00;99.90;;;;;;5216873;28;20031;-31
2023/12/25 12:30:02;;;;;;;2.78;1.10;;;15.10;99.90;;;;;;5223344;28;20055;-31
2023/12/25 12:32:36;;;;;;;1.48;1.20;;;15.30;99.90;;;;;;5217508;28;20325;-36
2023/12/25 12:35:13;;;;;;;1.30;1.20;;;15.10;99.90;;;;;;5230063;28;20225;-31
2023/12/25 12:37:51;;;;;;;2.35;0.90;;;15.00;99.90;;;;;;5229575;28;20021;-31
2023/12/25 12:40:36;;;;;;;1.95;0.93;;;15.00;99.90;;;;;;5223123;28;20023;-31
2023/12/25 12:43:20;;;;;;;1.02;0.93;;;14.90;99.90;;;;;;4876832;28;9960885;-31
2023/12/25 12:46:00;;;;;;;1.20;1.10;;;14.80;99.90;;;;;;5224159;28;20033;-31
2023/12/25 12:48:36;;;;;;;1.25;1.15;;;14.80;99.90;;;;;;5210009;28;20071;-31
2023/12/25 12:51:08;;;;;;;1.30;1.20;;;14.80;99.90;;;;;;5229799;28;20029;-32
2023/12/25 12:53:39;;;;;;;0.95;0.95;;;14.80;99.90;;;;;;5214969;28;20344;-33
2023/12/25 12:56:14;;;;;;;0.98;0.98;;;14.70;99.90;;;;;;5219196;28;20250;-32
2023/12/25 12:58:49;;;;;;;1.38;1.27;;;14.60;99.90;;;;;;5205818;28;20052;-31
2023/12/25 13:01:20;;;;;;;1.17;1.17;;;14.50;99.90;;;;;;5201380;28;20216;-31
2023/12/25 13:03:54;;;;;;;1.05;0.95;;;14.50;99.90;;;;;;5222714;28;20362;-32
2023/12/25 13:06:25;;;;;;;1.10;1.10;;;14.40;99.90;;;;;;5227302;28;20033;-33
2023/12/25 13:09:03;;;;;;;1.33;1.23;;;14.30;99.90;;;;;;5220871;28;20225;-31
2023/12/25 13:11:39;;;;;;;5.78;1.20;;;14.40;99.90;;;;;;5220113;28;20029;-31
2023/12/25 13:14:10;;;;;;;1.40;1.30;;;14.40;99.90;;;;;;5219008;28;20029;-31
2023/12/25 13:16:42;;;;;;;1.17;1.08;;;14.30;99.90;;;;;;5213862;28;20055;-33
2023/12/25 13:19:16;;;;;;;0.90;0.90;;;14.30;99.90;;;;;;5199441;28;20021;-31
2023/12/25 13:21:47;;;;;;;2.65;1.10;;;14.40;99.90;;;;;;5234585;28;20027;-32
2023/12/25 13:24:21;;;;;;;1.10;0.98;;;14.40;99.90;;;;;;5219104;28;20035;-32
2023/12/25 13:26:54;;;;;;;1.30;1.05;;;14.40;99.90;;;;;;5227094;28;20044;-32
2023/12/25 13:29:25;;;;;;;1.27;1.20;;;14.40;99.90;;;;;;5222749;28;20036;-32